Time;durP1;ratioP1;P1;durP2;ratioP2;P2;SDS_P1;SDS_P2;PMS_P1;PMS_P2;Temp;Humidity;BMP_temperature;BMP_pressure;BME280_temperature;BME280_humidity;BME280_pressure;Samples;Min_cycle;Max_cycle;Signal;HPM_P1;HPM_P2
2021/06/22 00:02:02;;;;;;;1.80;1.70;;;21.40;59.60;;;;;;5072340;28;20214;-65
2021/06/22 00:04:28;;;;;;;2.00;1.50;;;21.40;59.50;;;;;;5072538;28;20179;-65
2021/06/22 00:06:53;;;;;;;3.13;2.05;;;21.40;59.60;;;;;;5071874;28;20178;-65
2021/06/22 00:09:19;;;;;;;2.33;1.70;;;21.30;59.50;;;;;;5072519;28;20254;-65
2021/06/22 00:11:44;;;;;;;3.50;1.70;;;21.30;59.50;;;;;;5072239;28;20214;-65
2021/06/22 00:14:10;;;;;;;1.80;1.70;;;21.30;59.50;;;;;;5071943;28;20170;-65
2021/06/22 00:16:35;;;;;;;1.67;1.58;;;21.30;59.60;;;;;;5072219;28;20189;-65
2021/06/22 00:19:01;;;;;;;2.05;1.67;;;21.30;59.50;;;;;;5071786;28;20178;-64
2021/06/22 00:21:26;;;;;;;2.30;1.90;;;21.30;59.50;;;;;;5071756;28;20174;-64
2021/06/22 00:23:52;;;;;;;1.83;1.58;;;21.30;59.50;;;;;;5072283;28;20162;-64
2021/06/22 00:26:17;;;;;;;2.03;1.77;;;21.30;59.60;;;;;;5072086;28;20245;-64
2021/06/22 00:28:43;;;;;;;1.92;1.83;;;21.30;60.30;;;;;;5071421;28;20261;-64
2021/06/22 00:31:08;;;;;;;1.77;1.65;;;21.30;59.60;;;;;;5072251;28;20297;-65
2021/06/22 00:33:33;;;;;;;2.00;1.70;;;21.30;59.60;;;;;;5071842;28;20177;-65
2021/06/22 00:35:59;;;;;;;2.67;1.67;;;21.30;59.60;;;;;;5071366;28;20478;-66
2021/06/22 00:38:24;;;;;;;2.67;1.70;;;21.30;59.60;;;;;;5072218;28;20655;-65
2021/06/22 00:40:50;;;;;;;1.90;1.65;;;21.30;59.60;;;;;;5071839;28;20178;-66
2021/06/22 00:43:15;;;;;;;2.08;1.88;;;21.30;60.40;;;;;;5071351;28;20174;-65
2021/06/22 00:45:43;;;;;;;2.40;2.05;;;21.30;59.60;;;;;;5071798;28;20197;-65
2021/06/22 00:48:08;;;;;;;2.33;1.60;;;21.20;59.60;;;;;;5071950;28;20183;-65
2021/06/22 00:50:34;;;;;;;2.28;1.50;;;21.30;59.60;;;;;;5071053;28;20683;-65
2021/06/22 00:53:00;;;;;;;1.67;1.58;;;21.20;59.60;;;;;;5072061;28;20691;-64
2021/06/22 00:55:29;;;;;;;2.45;1.55;;;21.20;59.60;;;;;;5053890;28;20174;-65
2021/06/22 00:58:01;;;;;;;3.63;1.90;;;21.20;59.60;;;;;;5071045;28;20194;-64
2021/06/22 01:00:27;;;;;;;2.25;1.92;;;21.20;59.60;;;;;;5071805;28;20563;-65
2021/06/22 01:02:54;;;;;;;2.42;1.70;;;21.20;59.60;;;;;;5071673;28;20565;-65
2021/06/22 01:05:20;;;;;;;2.53;2.10;;;21.20;59.60;;;;;;5071536;28;20178;-65
2021/06/22 01:07:45;;;;;;;3.40;1.77;;;21.20;59.60;;;;;;5071671;28;20671;-65
2021/06/22 01:10:11;;;;;;;2.85;1.80;;;21.20;59.60;;;;;;5053115;28;20621;-65
2021/06/22 01:12:36;;;;;;;1.88;1.70;;;21.20;59.60;;;;;;5071469;28;20319;-65
2021/06/22 01:15:20;;;;;;;2.75;2.05;;;21.20;59.60;;;;;;5071593;28;20170;-64
2021/06/22 01:17:46;;;;;;;1.88;1.77;;;21.20;59.70;;;;;;5070865;28;20254;-65
2021/06/22 01:20:12;;;;;;;1.75;1.65;;;21.20;59.80;;;;;;5071499;28;20229;-64
2021/06/22 01:22:42;;;;;;;2.33;1.85;;;21.20;59.70;;;;;;5071345;28;20178;-64
2021/06/22 01:25:07;;;;;;;2.75;1.90;;;21.20;59.70;;;;;;5070946;28;20299;-64
2021/06/22 01:27:33;;;;;;;2.22;1.90;;;21.20;59.70;;;;;;5071172;28;20313;-64
2021/06/22 01:30:00;;;;;;;1.95;1.60;;;21.20;59.80;;;;;;5073025;28;20185;-64
2021/06/22 01:32:26;;;;;;;2.42;1.90;;;21.10;59.70;;;;;;5075122;28;20235;-65
2021/06/22 01:34:51;;;;;;;2.20;1.95;;;21.10;59.70;;;;;;5075475;28;20178;-65
2021/06/22 01:37:17;;;;;;;2.20;2.10;;;21.10;59.70;;;;;;5075814;28;20483;-65
2021/06/22 01:39:42;;;;;;;2.70;1.90;;;21.10;59.70;;;;;;5074541;28;20198;-65
2021/06/22 01:42:08;;;;;;;2.40;1.88;;;21.10;59.70;;;;;;5075387;28;20182;-65
2021/06/22 01:44:34;;;;;;;2.30;1.92;;;21.10;59.80;;;;;;5075360;28;20243;-64
2021/06/22 01:46:59;;;;;;;2.55;1.60;;;21.10;59.80;;;;;;5074875;28;20178;-65
2021/06/22 01:49:25;;;;;;;1.85;1.63;;;21.10;59.80;;;;;;5075719;28;20169;-64
2021/06/22 01:51:51;;;;;;;2.50;2.28;;;21.10;59.80;;;;;;5075183;28;20210;-64
2021/06/22 01:54:16;;;;;;;1.48;1.38;;;21.10;59.80;;;;;;5074552;28;20697;-64
2021/06/22 01:56:47;;;;;;;1.70;1.60;;;21.10;59.80;;;;;;5074988;28;20171;-64
2021/06/22 01:59:13;;;;;;;3.28;2.08;;;21.10;59.80;;;;;;5074470;28;20291;-64
2021/06/22 02:01:40;;;;;;;1.83;1.73;;;21.10;59.80;;;;;;5057036;28;20258;-64
2021/06/22 02:04:06;;;;;;;1.85;1.70;;;21.10;59.80;;;;;;5075375;28;20170;-65
2021/06/22 02:06:31;;;;;;;2.45;2.00;;;21.10;59.90;;;;;;5073982;28;20910;-64
2021/06/22 02:08:57;;;;;;;2.35;2.03;;;21.10;59.90;;;;;;5075084;28;20269;-64
2021/06/22 02:11:22;;;;;;;2.05;1.80;;;21.00;59.90;;;;;;5074828;28;20271;-65
2021/06/22 02:13:48;;;;;;;2.20;1.90;;;21.10;59.90;;;;;;5074021;28;20178;-64
2021/06/22 02:16:15;;;;;;;2.08;1.73;;;21.10;59.90;;;;;;5074987;28;20182;-65
2021/06/22 02:18:40;;;;;;;2.63;1.60;;;21.00;59.90;;;;;;5074457;28;20269;-64
2021/06/22 02:21:06;;;;;;;2.65;1.85;;;21.00;59.80;;;;;;5074041;28;20265;-64
2021/06/22 02:23:32;;;;;;;2.78;2.20;;;21.00;59.90;;;;;;5074556;28;20677;-64
2021/06/22 02:25:58;;;;;;;2.85;2.00;;;21.10;59.90;;;;;;5074395;28;20557;-64
2021/06/22 02:28:23;;;;;;;2.30;1.95;;;21.00;59.90;;;;;;5074265;28;20175;-64
2021/06/22 02:30:50;;;;;;;2.65;2.05;;;21.00;60.80;;;;;;5074414;28;20213;-64
2021/06/22 02:33:15;;;;;;;2.83;2.30;;;21.00;59.90;;;;;;5074536;28;20198;-65
2021/06/22 02:35:42;;;;;;;2.22;2.03;;;21.00;59.90;;;;;;5073351;28;20614;-65
2021/06/22 02:38:07;;;;;;;1.88;1.73;;;21.00;59.90;;;;;;5074456;28;20186;-66
2021/06/22 02:40:33;;;;;;;1.63;1.52;;;21.00;59.90;;;;;;5073906;28;20216;-65
2021/06/22 02:42:59;;;;;;;2.28;2.08;;;21.00;59.90;;;;;;5073191;28;20257;-65
2021/06/22 02:45:24;;;;;;;2.33;2.20;;;21.00;59.90;;;;;;5074455;28;20166;-65
2021/06/22 02:47:50;;;;;;;1.85;1.75;;;21.00;59.90;;;;;;5074102;28;20254;-64
2021/06/22 02:50:16;;;;;;;2.10;1.90;;;21.00;60.00;;;;;;5073557;28;20296;-65
2021/06/22 02:52:42;;;;;;;2.40;2.17;;;21.00;59.90;;;;;;5073821;28;20182;-64
2021/06/22 02:55:18;;;;;;;2.03;1.90;;;21.00;60.00;;;;;;5073923;28;20219;-64
2021/06/22 02:57:44;;;;;;;2.55;2.10;;;21.00;60.00;;;;;;5072979;28;20554;-64
2021/06/22 03:00:10;;;;;;;1.95;1.83;;;21.00;60.00;;;;;;5074051;28;20182;-64
2021/06/22 03:02:35;;;;;;;3.95;2.10;;;21.00;60.00;;;;;;5072987;28;20178;-65
2021/06/22 03:05:01;;;;;;;2.88;2.05;;;21.00;60.00;;;;;;5073798;28;20170;-65
2021/06/22 03:07:26;;;;;;;2.15;1.83;;;21.00;60.00;;;;;;5073808;28;20481;-65
2021/06/22 03:09:52;;;;;;;2.08;1.88;;;20.90;60.00;;;;;;5072890;28;20177;-64
2021/06/22 03:12:17;;;;;;;2.03;1.88;;;21.00;60.10;;;;;;5073525;28;20248;-65
2021/06/22 03:14:43;;;;;;;2.65;1.90;;;21.00;60.00;;;;;;5073372;28;20170;-64
2021/06/22 03:17:08;;;;;;;2.53;2.33;;;20.90;60.10;;;;;;5073051;28;20186;-64
2021/06/22 03:19:34;;;;;;;2.33;2.13;;;20.90;60.00;;;;;;5073297;28;20201;-64
2021/06/22 03:21:59;;;;;;;2.50;2.25;;;20.90;60.10;;;;;;5073538;28;20179;-64
2021/06/22 03:24:25;;;;;;;2.85;2.13;;;20.90;60.10;;;;;;5072603;28;20173;-64
2021/06/22 03:26:50;;;;;;;2.78;2.15;;;20.90;60.10;;;;;;5073052;28;20222;-64
2021/06/22 03:29:16;;;;;;;2.40;2.17;;;20.90;60.00;;;;;;5073383;28;20170;-64
2021/06/22 03:31:42;;;;;;;1.77;1.67;;;20.90;60.10;;;;;;5072104;28;20671;-65
2021/06/22 03:34:07;;;;;;;2.53;1.95;;;20.90;60.10;;;;;;5073193;28;20186;-65
2021/06/22 03:36:33;;;;;;;2.53;2.00;;;20.90;60.10;;;;;;5072855;28;20189;-66
2021/06/22 03:38:58;;;;;;;2.28;1.77;;;20.90;60.10;;;;;;5072349;28;20177;-66
2021/06/22 03:41:24;;;;;;;3.25;2.35;;;20.90;60.10;;;;;;5073298;28;20593;-65
2021/06/22 03:43:50;;;;;;;2.28;1.85;;;20.90;60.10;;;;;;5072978;28;20170;-65
2021/06/22 03:46:18;;;;;;;2.38;1.98;;;20.90;60.10;;;;;;5072261;28;20535;-65
2021/06/22 03:48:44;;;;;;;2.72;1.83;;;20.90;60.10;;;;;;5072663;28;20181;-64
2021/06/22 03:51:09;;;;;;;3.38;2.00;;;20.90;60.10;;;;;;5072953;28;20260;-64
2021/06/22 03:53:37;;;;;;;2.42;1.80;;;20.90;60.20;;;;;;5071305;28;20569;-64
2021/06/22 03:56:04;;;;;;;2.05;1.95;;;20.90;60.20;;;;;;5073460;28;20532;-65
2021/06/22 03:58:29;;;;;;;2.25;2.00;;;20.90;60.20;;;;;;5072941;28;20631;-65
2021/06/22 04:00:55;;;;;;;2.20;2.00;;;20.90;60.10;;;;;;5072569;28;20183;-65
2021/06/22 04:03:20;;;;;;;3.08;2.15;;;20.80;60.10;;;;;;5073069;28;20190;-65
2021/06/22 04:05:46;;;;;;;2.42;2.22;;;20.80;60.20;;;;;;5072457;28;20266;-65
2021/06/22 04:08:11;;;;;;;2.30;1.77;;;20.80;60.20;;;;;;5072397;28;20196;-66
2021/06/22 04:10:37;;;;;;;2.63;2.20;;;20.80;60.20;;;;;;5072591;28;20245;-65
2021/06/22 04:13:02;;;;;;;2.30;2.10;;;20.80;60.20;;;;;;5072371;28;20175;-65
2021/06/22 04:15:28;;;;;;;2.00;1.88;;;20.80;60.20;;;;;;5072960;28;20655;-65
2021/06/22 04:18:20;;;;;;;2.58;2.38;;;20.80;60.20;;;;;;5072525;28;20202;-64
2021/06/22 04:20:45;;;;;;;2.28;2.10;;;20.80;60.20;;;;;;5067795;28;20186;-64
2021/06/22 04:23:11;;;;;;;2.42;2.13;;;20.80;60.20;;;;;;5072593;28;20576;-64
2021/06/22 04:25:36;;;;;;;2.05;1.88;;;20.80;60.20;;;;;;5072562;28;20186;-64
2021/06/22 04:28:03;;;;;;;2.65;2.20;;;20.80;60.20;;;;;;5071833;28;20222;-64
2021/06/22 04:30:29;;;;;;;2.08;1.98;;;20.80;60.20;;;;;;5072624;28;20177;-65
2021/06/22 04:32:54;;;;;;;1.98;1.85;;;20.80;60.20;;;;;;5072517;28;20182;-65
2021/06/22 04:35:20;;;;;;;2.85;2.00;;;20.80;60.20;;;;;;5071807;28;20202;-65
2021/06/22 04:37:45;;;;;;;2.75;2.45;;;20.80;60.20;;;;;;5072401;28;20266;-66
2021/06/22 04:40:11;;;;;;;2.40;2.30;;;20.80;60.20;;;;;;5072611;28;20274;-66
2021/06/22 04:42:37;;;;;;;2.30;2.13;;;20.80;60.20;;;;;;5071638;28;20181;-65
2021/06/22 04:45:04;;;;;;;2.72;2.10;;;20.80;60.20;;;;;;5072448;28;20535;-65
2021/06/22 04:47:29;;;;;;;3.25;2.25;;;20.80;60.20;;;;;;5072057;28;20182;-65
2021/06/22 04:49:55;;;;;;;2.10;1.90;;;20.80;60.20;;;;;;5071540;28;20171;-65
2021/06/22 04:52:20;;;;;;;2.53;2.30;;;20.80;60.30;;;;;;5072099;28;20218;-64
2021/06/22 04:54:46;;;;;;;2.38;2.17;;;20.80;60.20;;;;;;5072078;28;20193;-64
2021/06/22 04:57:13;;;;;;;1.85;1.75;;;20.80;60.20;;;;;;5071572;28;20179;-65
2021/06/22 04:59:41;;;;;;;2.40;2.20;;;20.80;60.20;;;;;;5071952;28;20181;-65
2021/06/22 05:02:06;;;;;;;1.92;1.80;;;20.80;60.20;;;;;;5071395;28;20182;-65
2021/06/22 05:04:32;;;;;;;1.85;1.70;;;20.80;60.20;;;;;;5053561;28;20265;-65
2021/06/22 05:06:58;;;;;;;2.60;2.03;;;20.80;60.20;;;;;;5072028;28;20183;-65
2021/06/22 05:09:24;;;;;;;2.55;2.20;;;20.80;60.20;;;;;;5071495;28;20228;-65
2021/06/22 05:11:49;;;;;;;2.78;2.58;;;20.80;60.20;;;;;;5071560;28;20221;-65
2021/06/22 05:14:15;;;;;;;2.38;2.17;;;20.90;60.20;;;;;;5072056;28;20173;-65
2021/06/22 05:16:41;;;;;;;2.65;2.45;;;20.80;60.10;;;;;;5070936;28;20170;-65
2021/06/22 05:19:06;;;;;;;2.60;2.40;;;20.80;60.10;;;;;;5071939;28;20170;-64
2021/06/22 05:21:32;;;;;;;2.67;2.42;;;20.90;60.10;;;;;;5071898;28;20659;-65
2021/06/22 05:23:57;;;;;;;2.00;1.90;;;20.90;60.10;;;;;;5071374;28;20209;-64
2021/06/22 05:26:23;;;;;;;2.30;2.15;;;20.90;60.10;;;;;;5071733;28;20313;-64
2021/06/22 05:28:49;;;;;;;2.40;2.20;;;20.90;60.10;;;;;;5071593;28;20253;-64
2021/06/22 05:31:15;;;;;;;2.45;2.25;;;20.90;60.10;;;;;;5071067;28;20214;-65
2021/06/22 05:33:40;;;;;;;2.55;2.35;;;20.90;60.00;;;;;;5071514;28;20603;-65
2021/06/22 05:36:06;;;;;;;2.40;2.10;;;20.90;60.00;;;;;;5071951;28;20598;-66
2021/06/22 05:38:31;;;;;;;1.90;1.80;;;20.90;60.00;;;;;;5070824;28;20653;-66
2021/06/22 05:40:57;;;;;;;2.35;2.20;;;20.90;59.90;;;;;;5071439;28;20546;-66
2021/06/22 05:43:22;;;;;;;2.85;2.65;;;21.00;59.90;;;;;;5071652;28;20183;-65
2021/06/22 05:45:48;;;;;;;2.85;2.60;;;21.00;59.90;;;;;;5070492;28;20174;-65
2021/06/22 05:48:13;;;;;;;2.55;2.35;;;21.00;59.80;;;;;;5071489;28;20199;-65
2021/06/22 05:50:39;;;;;;;4.32;2.58;;;21.00;59.80;;;;;;5071381;28;20608;-64
2021/06/22 05:53:04;;;;;;;3.00;2.25;;;21.00;59.80;;;;;;5070823;28;20596;-64
2021/06/22 05:55:30;;;;;;;2.85;2.65;;;21.00;59.80;;;;;;5071188;28;20680;-64
2021/06/22 05:57:59;;;;;;;2.60;2.40;;;21.10;59.90;;;;;;5071435;28;20185;-65
2021/06/22 06:00:24;;;;;;;2.50;2.30;;;21.10;59.90;;;;;;5070795;28;20210;-64
2021/06/22 06:02:50;;;;;;;2.47;2.28;;;21.10;59.80;;;;;;5071119;28;20182;-65
2021/06/22 06:05:16;;;;;;;2.55;2.35;;;21.10;59.90;;;;;;5071676;28;20518;-65
2021/06/22 06:07:42;;;;;;;2.20;2.00;;;21.10;59.90;;;;;;5070713;28;20257;-65
2021/06/22 06:10:09;;;;;;;2.53;2.33;;;21.10;59.90;;;;;;5071560;28;20254;-65
2021/06/22 06:12:35;;;;;;;2.50;2.30;;;21.10;59.90;;;;;;5070122;28;20261;-64
2021/06/22 06:15:00;;;;;;;2.63;2.42;;;21.10;60.00;;;;;;5071456;28;20205;-64
2021/06/22 06:17:26;;;;;;;2.60;2.40;;;21.10;60.00;;;;;;5073044;28;20174;-65
2021/06/22 06:19:51;;;;;;;2.60;2.40;;;21.00;60.10;;;;;;5074021;28;20714;-64
2021/06/22 06:22:18;;;;;;;2.40;2.20;;;21.00;61.00;;;;;;5074574;28;20186;-64
2021/06/22 06:24:44;;;;;;;2.97;2.67;;;21.00;60.90;;;;;;5074295;28;20175;-64
2021/06/22 06:27:18;;;;;;;2.38;2.17;;;21.10;59.90;;;;;;5073633;28;20226;-64
2021/06/22 06:29:53;;;;;;;3.33;2.80;;;21.10;59.90;;;;;;5074280;28;20284;-64
2021/06/22 06:32:19;;;;;;;2.63;2.42;;;21.10;59.90;;;;;;5074378;28;20233;-65
2021/06/22 06:34:45;;;;;;;2.90;2.60;;;21.10;59.80;;;;;;5073436;28;20617;-65
2021/06/22 06:37:10;;;;;;;2.58;2.38;;;21.10;59.80;;;;;;5074232;28;20265;-65
2021/06/22 06:39:36;;;;;;;2.50;2.40;;;21.20;59.80;;;;;;5074066;28;20284;-65
2021/06/22 06:42:02;;;;;;;3.10;2.80;;;21.10;59.80;;;;;;5073543;28;20317;-65
2021/06/22 06:44:27;;;;;;;2.60;2.40;;;21.10;59.90;;;;;;5074091;28;20174;-65
2021/06/22 06:46:53;;;;;;;2.50;2.30;;;21.10;59.90;;;;;;5074065;28;20340;-64
2021/06/22 06:49:18;;;;;;;2.63;2.42;;;21.20;59.90;;;;;;5073528;28;20647;-64
2021/06/22 06:51:44;;;;;;;3.13;2.83;;;21.20;59.80;;;;;;5073669;28;20210;-64
2021/06/22 06:54:09;;;;;;;2.78;2.58;;;21.20;59.70;;;;;;5074210;28;20167;-64
2021/06/22 06:56:35;;;;;;;2.67;2.47;;;21.30;59.80;;;;;;5073098;28;20193;-64
2021/06/22 06:59:00;;;;;;;3.65;2.95;;;21.30;59.80;;;;;;5074053;28;20170;-65
2021/06/22 07:01:26;;;;;;;5.05;3.45;;;21.30;59.70;;;;;;5074301;28;20179;-65
2021/06/22 07:03:53;;;;;;;3.03;2.72;;;21.30;59.70;;;;;;5073188;28;20205;-65
2021/06/22 07:06:18;;;;;;;3.45;3.15;;;21.30;59.80;;;;;;5074354;28;20186;-65
2021/06/22 07:08:47;;;;;;;3.42;3.13;;;21.30;59.60;;;;;;5072974;28;20684;-64
2021/06/22 07:11:18;;;;;;;3.03;2.67;;;21.30;59.60;;;;;;5073933;28;20202;-64
2021/06/22 07:13:44;;;;;;;3.20;2.90;;;21.40;59.70;;;;;;5073582;28;20179;-64
2021/06/22 07:16:09;;;;;;;3.38;3.08;;;21.40;59.60;;;;;;5073702;28;20175;-64
2021/06/22 07:18:35;;;;;;;3.72;3.30;;;21.30;59.60;;;;;;5073482;28;20193;-64
2021/06/22 07:21:00;;;;;;;3.70;3.30;;;21.40;59.70;;;;;;5073837;28;20186;-62
2021/06/22 07:23:26;;;;;;;3.78;3.47;;;21.40;59.60;;;;;;5072961;28;20186;-63
2021/06/22 07:25:51;;;;;;;3.65;3.28;;;21.40;59.60;;;;;;5073233;28;20185;-68
2021/06/22 07:28:17;;;;;;;4.07;3.58;;;21.40;59.60;;;;;;5073243;28;20182;-67
2021/06/22 07:30:42;;;;;;;4.07;3.70;;;21.40;59.70;;;;;;5072633;28;20202;-66
2021/06/22 07:33:08;;;;;;;5.03;4.55;;;21.30;59.60;;;;;;5073395;28;20175;-66
2021/06/22 07:35:34;;;;;;;5.00;4.60;;;21.30;59.50;;;;;;5073268;28;20178;-67
2021/06/22 07:38:00;;;;;;;5.20;4.80;;;21.30;59.50;;;;;;5072598;28;20181;-67
2021/06/22 07:40:25;;;;;;;6.88;6.18;;;21.30;59.40;;;;;;5073272;28;20179;-67
2021/06/22 07:42:52;;;;;;;7.20;5.97;;;21.30;59.20;;;;;;5073015;28;20174;-66
2021/06/22 07:45:18;;;;;;;6.20;5.22;;;21.30;59.20;;;;;;5072515;28;20197;-66
2021/06/22 07:47:44;;;;;;;5.25;4.75;;;21.30;59.10;;;;;;5073104;28;20178;-66
2021/06/22 07:50:10;;;;;;;7.05;6.32;;;21.30;59.20;;;;;;5073074;28;20170;-66
2021/06/22 07:52:36;;;;;;;9.07;6.90;;;21.30;59.00;;;;;;5071877;28;20237;-65
2021/06/22 07:55:01;;;;;;;7.22;6.57;;;21.30;58.90;;;;;;5072947;28;20621;-65
2021/06/22 07:57:27;;;;;;;7.10;6.40;;;21.30;58.80;;;;;;5072588;28;20637;-66
2021/06/22 07:59:52;;;;;;;6.88;6.25;;;21.30;58.80;;;;;;5071745;28;20193;-67
2021/06/22 08:02:18;;;;;;;8.23;7.13;;;21.30;58.70;;;;;;5072930;28;20178;-66
2021/06/22 08:04:43;;;;;;;6.90;6.30;;;21.30;58.60;;;;;;5072643;28;20624;-67
2021/06/22 08:07:09;;;;;;;8.23;7.35;;;21.30;58.50;;;;;;5072084;28;20174;-67
2021/06/22 08:09:34;;;;;;;7.80;7.07;;;21.30;58.50;;;;;;5072397;28;20170;-69
2021/06/22 08:12:00;;;;;;;7.72;6.60;;;21.30;58.40;;;;;;5071802;28;20292;-68
2021/06/22 08:14:26;;;;;;;10.27;8.23;;;21.30;58.50;;;;;;5072519;28;20637;-68
2021/06/22 08:16:52;;;;;;;7.65;6.95;;;21.30;58.40;;;;;;5072483;28;20182;-67
2021/06/22 08:19:17;;;;;;;9.38;8.13;;;21.30;58.40;;;;;;5071666;28;20273;-64
2021/06/22 08:21:43;;;;;;;8.18;7.38;;;21.30;58.30;;;;;;5071998;28;20181;-62
2021/06/22 08:24:08;;;;;;;9.05;7.55;;;21.40;58.50;;;;;;5072322;28;20170;-64
2021/06/22 08:26:34;;;;;;;8.98;8.07;;;21.40;58.40;;;;;;5071327;28;20225;-65
2021/06/22 08:29:01;;;;;;;8.98;8.07;;;21.40;58.40;;;;;;5072038;28;20178;-64
2021/06/22 08:31:26;;;;;;;8.43;7.60;;;21.50;58.50;;;;;;5072252;28;20222;-66
2021/06/22 08:33:51;;;;;;;8.73;7.82;;;21.50;58.60;;;;;;5071066;28;20193;-68
2021/06/22 08:36:17;;;;;;;8.10;7.32;;;21.50;58.60;;;;;;5071824;28;20652;-66
2021/06/22 08:38:42;;;;;;;11.30;7.95;;;21.50;58.60;;;;;;5071591;28;20227;-68
2021/06/22 08:41:09;;;;;;;11.48;8.10;;;21.50;58.60;;;;;;5061019;28;20173;-67
2021/06/22 08:43:34;;;;;;;8.98;8.07;;;21.50;58.60;;;;;;5073793;28;20547;-67
2021/06/22 08:46:04;;;;;;;9.75;8.13;;;21.50;58.50;;;;;;5092252;28;20253;-67
2021/06/22 08:48:30;;;;;;;9.40;8.50;;;21.50;58.40;;;;;;5083867;28;20174;-66
2021/06/22 08:50:55;;;;;;;10.35;8.85;;;21.50;58.30;;;;;;5071823;28;20376;-65
2021/06/22 08:53:21;;;;;;;11.93;8.48;;;21.50;58.30;;;;;;5053373;28;20194;-66
2021/06/22 08:55:47;;;;;;;10.23;9.30;;;21.50;57.90;;;;;;5052985;28;20624;-66
2021/06/22 08:58:15;;;;;;;9.40;8.50;;;21.50;58.00;;;;;;5071565;28;20209;-67
2021/06/22 09:00:42;;;;;;;10.07;9.07;;;21.50;58.10;;;;;;5071594;28;20197;-67
2021/06/22 09:03:18;;;;;;;11.55;8.93;;;21.50;58.10;;;;;;5070959;28;20523;-66
2021/06/22 09:05:45;;;;;;;10.23;8.63;;;21.50;58.10;;;;;;5071692;28;20163;-66
2021/06/22 09:08:22;;;;;;;12.57;9.25;;;21.50;58.10;;;;;;5071559;28;20530;-66
2021/06/22 09:10:48;;;;;;;9.82;8.68;;;21.50;58.00;;;;;;5071075;28;20671;-67
2021/06/22 09:13:19;;;;;;;9.75;8.68;;;21.50;58.00;;;;;;5071828;28;20196;-66
2021/06/22 09:15:46;;;;;;;11.10;9.77;;;21.50;58.00;;;;;;5090819;28;20177;-66
2021/06/22 09:18:27;;;;;;;10.05;9.00;;;21.50;57.80;;;;;;5091761;28;20188;-66
2021/06/22 09:21:01;;;;;;;10.07;9.05;;;21.50;57.50;;;;;;5091565;28;20178;-66
2021/06/22 09:23:37;;;;;;;10.35;9.27;;;21.60;57.50;;;;;;5091211;28;20178;-65
2021/06/22 09:26:16;;;;;;;9.02;8.23;;;21.60;57.30;;;;;;5091464;28;20698;-66
2021/06/22 09:28:42;;;;;;;10.80;9.70;;;21.70;56.90;;;;;;5091355;28;20268;-66
2021/06/22 09:31:09;;;;;;;10.27;9.18;;;21.70;56.80;;;;;;5090861;28;20301;-66
2021/06/22 09:33:42;;;;;;;12.50;9.25;;;21.70;56.70;;;;;;5091636;28;20177;-68
2021/06/22 09:36:26;;;;;;;10.27;9.07;;;21.80;56.60;;;;;;5091839;28;20192;-67
2021/06/22 09:38:58;;;;;;;10.75;9.15;;;21.80;56.50;;;;;;5091625;28;20174;-67
2021/06/22 09:41:29;;;;;;;9.63;8.63;;;21.80;56.50;;;;;;5091504;28;20328;-66
2021/06/22 09:44:07;;;;;;;9.95;8.95;;;21.80;56.50;;;;;;5090998;28;20170;-66
2021/06/22 09:46:46;;;;;;;10.75;8.05;;;21.80;56.50;;;;;;5091442;28;20169;-66
2021/06/22 09:49:20;;;;;;;8.90;8.00;;;21.90;56.40;;;;;;5075989;28;20167;-65
2021/06/22 09:51:54;;;;;;;9.45;8.65;;;21.80;56.40;;;;;;5071318;28;20210;-65
2021/06/22 09:54:32;;;;;;;9.25;8.35;;;21.90;56.40;;;;;;5075365;28;20203;-65
2021/06/22 09:57:22;;;;;;;8.27;7.57;;;21.80;56.40;;;;;;5075053;28;20258;-66
2021/06/22 10:00:08;;;;;;;11.07;8.90;;;21.90;56.50;;;;;;5068592;28;20339;-66
2021/06/22 10:02:50;;;;;;;9.55;8.60;;;21.90;56.30;;;;;;5074894;28;20189;-66
2021/06/22 10:05:16;;;;;;;8.23;7.53;;;21.90;56.10;;;;;;5074326;28;20194;-66
2021/06/22 10:07:42;;;;;;;9.07;8.20;;;22.00;56.10;;;;;;5074505;28;20174;-66
2021/06/22 10:10:08;;;;;;;8.65;7.90;;;22.00;56.80;;;;;;5074880;28;20177;-66
2021/06/22 10:12:35;;;;;;;8.40;7.60;;;22.10;56.00;;;;;;5073705;28;20672;-67
2021/06/22 10:15:01;;;;;;;8.32;7.53;;;22.10;56.10;;;;;;5056987;28;20204;-66
2021/06/22 10:17:28;;;;;;;8.55;7.68;;;22.10;56.10;;;;;;5074925;28;20210;-66
2021/06/22 10:19:55;;;;;;;8.65;7.75;;;22.10;56.00;;;;;;5073829;28;20304;-66
2021/06/22 10:22:23;;;;;;;10.77;8.07;;;21.90;56.10;;;;;;5074576;28;20536;-66
2021/06/22 10:24:49;;;;;;;8.15;7.40;;;22.00;56.30;;;;;;5074362;28;20269;-66
2021/06/22 10:27:16;;;;;;;8.23;7.53;;;22.00;56.30;;;;;;5073601;28;20313;-66
2021/06/22 10:29:43;;;;;;;8.45;7.55;;;22.00;56.20;;;;;;5074312;28;20175;-66
2021/06/22 10:32:08;;;;;;;8.35;7.63;;;22.00;56.00;;;;;;5074588;28;20556;-67
2021/06/22 10:34:36;;;;;;;8.80;7.10;;;22.10;55.90;;;;;;5073374;28;20658;-68
2021/06/22 10:37:06;;;;;;;8.95;7.60;;;22.10;55.80;;;;;;5056849;28;20179;-68
2021/06/22 10:39:36;;;;;;;8.32;7.53;;;22.10;55.70;;;;;;5056174;28;20181;-66
2021/06/22 10:42:09;;;;;;;7.30;6.60;;;22.10;55.80;;;;;;5073365;28;20664;-66
2021/06/22 10:44:39;;;;;;;8.15;7.00;;;22.10;55.80;;;;;;5056215;28;20213;-66
2021/06/22 10:47:32;;;;;;;8.27;6.95;;;22.10;55.90;;;;;;5073387;28;20655;-66
2021/06/22 10:50:21;;;;;;;8.13;7.25;;;22.10;55.70;;;;;;5054356;28;20186;-65
2021/06/22 10:52:51;;;;;;;8.88;6.32;;;22.20;55.60;;;;;;5043003;28;20680;-65
2021/06/22 10:55:31;;;;;;;8.30;7.15;;;22.10;55.80;;;;;;5035345;28;20179;-65
2021/06/22 10:57:57;;;;;;;7.40;6.32;;;22.10;55.80;;;;;;5054197;28;20317;-66
2021/06/22 11:00:23;;;;;;;7.65;6.85;;;22.10;55.80;;;;;;5054120;28;20175;-66
2021/06/22 11:03:23;;;;;;;8.15;6.75;;;22.10;55.80;;;;;;5052366;28;20190;-65
2021/06/22 11:05:50;;;;;;;7.13;6.43;;;22.20;55.60;;;;;;5053699;28;20236;-67
2021/06/22 11:08:16;;;;;;;7.50;6.72;;;22.20;55.50;;;;;;5051779;28;20233;-67
2021/06/22 11:10:54;;;;;;;7.70;6.50;;;22.20;55.50;;;;;;5053281;28;20183;-67
2021/06/22 11:13:41;;;;;;;6.82;5.78;;;22.20;55.50;;;;;;5053567;28;20244;-66
2021/06/22 11:16:13;;;;;;;7.13;6.47;;;22.20;55.40;;;;;;5053139;28;20195;-67
2021/06/22 11:18:56;;;;;;;6.97;6.18;;;22.20;55.40;;;;;;5053405;28;20593;-66
2021/06/22 11:21:38;;;;;;;6.43;5.78;;;22.20;55.30;;;;;;5053471;28;20632;-66
2021/06/22 11:24:12;;;;;;;7.45;6.53;;;22.20;55.20;;;;;;5052779;28;20625;-67
2021/06/22 11:26:50;;;;;;;9.55;6.43;;;22.30;55.10;;;;;;5052878;28;20239;-67
2021/06/22 11:29:17;;;;;;;7.93;6.38;;;22.30;55.10;;;;;;5052966;28;20174;-67
2021/06/22 11:31:44;;;;;;;6.38;5.78;;;22.30;55.10;;;;;;5052952;28;20206;-67
2021/06/22 11:34:14;;;;;;;7.22;6.18;;;22.30;55.10;;;;;;5053491;28;20167;-67
2021/06/22 11:36:44;;;;;;;5.95;5.47;;;22.20;55.00;;;;;;5052526;28;20183;-67
2021/06/22 11:39:16;;;;;;;7.28;6.18;;;22.20;55.10;;;;;;5053242;28;20183;-67
2021/06/22 11:42:02;;;;;;;6.68;5.90;;;22.20;55.10;;;;;;5052974;28;20215;-68
2021/06/22 11:44:27;;;;;;;6.47;5.70;;;22.20;55.00;;;;;;5038162;28;20260;-67
2021/06/22 11:46:53;;;;;;;6.05;5.55;;;22.30;54.90;;;;;;5053053;28;20606;-67
2021/06/22 11:49:19;;;;;;;6.38;5.78;;;22.40;54.90;;;;;;5086209;28;20170;-67
2021/06/22 11:51:47;;;;;;;6.15;5.55;;;22.40;54.80;;;;;;5092197;28;20213;-67
2021/06/22 11:54:17;;;;;;;7.20;5.68;;;22.40;54.70;;;;;;5093223;28;20189;-67
2021/06/22 11:56:43;;;;;;;6.10;5.60;;;22.40;54.70;;;;;;5074571;28;20337;-67
2021/06/22 11:59:09;;;;;;;7.07;6.05;;;22.50;54.70;;;;;;5092703;28;20337;-67
2021/06/22 12:01:34;;;;;;;6.53;5.93;;;22.40;54.60;;;;;;5092907;28;20631;-67
2021/06/22 12:04:00;;;;;;;7.00;6.05;;;22.50;54.60;;;;;;5093088;28;20264;-67
2021/06/22 12:06:26;;;;;;;6.63;5.95;;;22.40;54.60;;;;;;5092253;28;20185;-67
2021/06/22 12:08:51;;;;;;;6.50;5.50;;;22.40;54.70;;;;;;5092487;28;20571;-67
2021/06/22 12:11:34;;;;;;;6.97;6.38;;;22.40;54.70;;;;;;5092015;28;20227;-67
2021/06/22 12:13:59;;;;;;;7.50;6.47;;;22.40;54.70;;;;;;5092235;28;20202;-67
2021/06/22 12:16:29;;;;;;;6.30;5.80;;;22.40;54.60;;;;;;5092676;28;20286;-67
2021/06/22 12:19:02;;;;;;;7.05;6.32;;;22.50;54.50;;;;;;5091999;28;20647;-66
2021/06/22 12:21:28;;;;;;;6.38;5.60;;;22.40;54.60;;;;;;5092796;28;20204;-67
2021/06/22 12:24:02;;;;;;;7.97;6.50;;;22.40;54.70;;;;;;5092317;28;20230;-67
2021/06/22 12:26:27;;;;;;;6.47;5.82;;;22.40;54.50;;;;;;5091890;28;20282;-67
2021/06/22 12:28:53;;;;;;;6.38;5.88;;;22.60;54.40;;;;;;5092252;28;20178;-67
2021/06/22 12:31:18;;;;;;;7.15;6.57;;;22.60;54.20;;;;;;5092656;28;20325;-67
2021/06/22 12:33:45;;;;;;;7.10;6.50;;;22.60;54.10;;;;;;5091517;28;20264;-67
2021/06/22 12:36:18;;;;;;;6.70;6.10;;;22.50;54.20;;;;;;5092732;28;20185;-68
2021/06/22 12:38:44;;;;;;;6.60;6.05;;;22.60;54.20;;;;;;5092355;28;20303;-68
2021/06/22 12:41:10;;;;;;;6.60;6.00;;;22.70;54.00;;;;;;5091779;28;20640;-67
2021/06/22 12:43:48;;;;;;;7.07;6.35;;;22.70;53.90;;;;;;5092298;28;20174;-67
2021/06/22 12:46:16;;;;;;;7.13;6.50;;;22.70;53.70;;;;;;5092704;28;20647;-67
2021/06/22 12:48:42;;;;;;;7.10;6.07;;;22.70;53.80;;;;;;5080228;28;20459;-67